Time;durP1;ratioP1;P1;durP2;ratioP2;P2;SDS_P1;SDS_P2;PMS_P1;PMS_P2;Temp;Humidity;BMP_temperature;BMP_pressure;BME280_temperature;BME280_humidity;BME280_pressure;Samples;Min_cycle;Max_cycle;Signal;HPM_P1;HPM_P2
2023/07/05 03:16:56;;;;;;;1.67;0.20;;;20.40;75.00;;;;;;6123061;22;88614;-71
2023/07/05 03:19:22;;;;;;;4.22;0.40;;;20.30;76.00;;;;;;6155576;22;88059;-72
2023/07/05 03:21:48;;;;;;;1.52;0.22;;;20.20;76.30;;;;;;6156249;22;87290;-72
2023/07/05 03:24:13;;;;;;;1.27;0.25;;;20.20;76.30;;;;;;6157232;22;87910;-72
2023/07/05 03:26:40;;;;;;;2.42;0.52;;;20.20;75.60;;;;;;6158991;22;86720;-71
2023/07/05 03:29:06;;;;;;;3.03;0.32;;;20.20;76.60;;;;;;6155474;22;88580;-75
2023/07/05 03:31:32;;;;;;;1.67;0.45;;;20.10;77.20;;;;;;6157372;22;87971;-72
2023/07/05 03:33:57;;;;;;;1.52;0.30;;;20.10;76.30;;;;;;6157224;22;88318;-75
2023/07/05 03:36:23;;;;;;;3.63;0.30;;;20.20;77.00;;;;;;6157460;22;86981;-73
2023/07/05 03:38:50;;;;;;;0.98;0.22;;;20.20;76.50;;;;;;6156861;22;87728;-72
2023/07/05 03:41:19;;;;;;;2.33;0.35;;;20.10;77.30;;;;;;6157004;22;87659;-74
2023/07/05 03:43:53;;;;;;;5.75;0.25;;;20.10;77.70;;;;;;6158431;22;87171;-73
2023/07/05 03:46:18;;;;;;;2.65;0.30;;;20.00;78.50;;;;;;6158680;22;87269;-73
2023/07/05 03:48:45;;;;;;;1.30;0.25;;;20.00;77.30;;;;;;6156862;22;88180;-74
2023/07/05 03:51:14;;;;;;;1.67;0.40;;;20.10;77.20;;;;;;6158732;22;87976;-72
2023/07/05 03:53:40;;;;;;;6.38;0.47;;;20.10;77.10;;;;;;6156985;22;87582;-73
2023/07/05 03:56:09;;;;;;;2.72;0.50;;;20.10;76.90;;;;;;6157658;22;87361;-74
2023/07/05 03:58:35;;;;;;;3.35;0.50;;;20.10;77.10;;;;;;6157004;22;88543;-74
2023/07/05 04:01:07;;;;;;;2.28;0.30;;;20.10;77.00;;;;;;6157997;22;87795;-74
2023/07/05 04:03:33;;;;;;;4.78;0.20;;;20.10;77.30;;;;;;6158756;22;87402;-74
2023/07/05 04:06:04;;;;;;;3.70;0.52;;;20.00;77.10;;;;;;6131462;22;87487;-74
2023/07/05 04:08:30;;;;;;;3.00;0.40;;;20.00;77.90;;;;;;6158058;22;89127;-74
2023/07/05 04:10:56;;;;;;;5.45;0.60;;;20.00;78.70;;;;;;6157639;22;87276;-74
2023/07/05 04:13:21;;;;;;;3.35;0.50;;;20.00;78.60;;;;;;6158752;22;87566;-74
2023/07/05 04:15:56;;;;;;;1.80;0.40;;;20.10;78.80;;;;;;6158561;22;86338;-74
2023/07/05 04:18:21;;;;;;;2.08;0.55;;;20.10;78.30;;;;;;6157142;22;88764;-72
2023/07/05 04:20:47;;;;;;;1.58;0.28;;;20.20;78.50;;;;;;6157812;22;87660;-74
2023/07/05 04:23:13;;;;;;;2.03;0.30;;;20.20;78.40;;;;;;6181446;22;88431;-74
2023/07/05 04:25:38;;;;;;;3.13;0.32;;;20.20;78.80;;;;;;6189166;22;87308;-74
2023/07/05 04:28:05;;;;;;;3.42;0.35;;;20.30;78.90;;;;;;6188142;22;88199;-74
2023/07/05 04:30:30;;;;;;;1.88;0.45;;;20.30;78.60;;;;;;6188667;22;87965;-74
2023/07/05 04:32:56;;;;;;;2.17;0.32;;;20.40;78.20;;;;;;6188722;22;87329;-75
2023/07/05 04:35:22;;;;;;;2.33;0.60;;;20.50;78.50;;;;;;6188846;22;87427;-74
2023/07/05 04:37:47;;;;;;;4.15;0.35;;;20.60;77.50;;;;;;6188073;22;87775;-73
2023/07/05 04:40:13;;;;;;;2.33;0.50;;;21.10;76.20;;;;;;6188524;22;90019;-72
2023/07/05 04:42:39;;;;;;;2.70;0.57;;;21.30;74.80;;;;;;6188752;22;87467;-74
2023/07/05 04:45:05;;;;;;;3.33;0.75;;;21.50;74.10;;;;;;6184390;22;87317;-74
2023/07/05 04:47:30;;;;;;;3.00;0.57;;;22.30;71.80;;;;;;6186052;22;89171;-70
2023/07/05 04:49:56;;;;;;;2.25;0.50;;;23.00;69.10;;;;;;6188456;22;88757;-70
2023/07/05 04:52:21;;;;;;;7.15;0.55;;;23.20;68.60;;;;;;6188032;22;87306;-69
2023/07/05 04:54:47;;;;;;;1.38;0.43;;;23.70;68.00;;;;;;6187148;22;87277;-70
2023/07/05 04:57:13;;;;;;;2.47;0.40;;;24.70;64.30;;;;;;6188215;22;88070;-68
2023/07/05 04:59:43;;;;;;;2.38;0.32;;;25.70;61.70;;;;;;6188519;22;87746;-70
2023/07/05 05:02:10;;;;;;;6.25;0.50;;;25.90;60.50;;;;;;6187064;22;87079;-70
2023/07/05 05:04:36;;;;;;;5.57;0.63;;;26.10;59.90;;;;;;6186909;22;86673;-70
2023/07/05 05:07:01;;;;;;;2.97;0.52;;;25.60;60.20;;;;;;6187983;22;88140;-71
2023/07/05 05:09:27;;;;;;;3.55;0.50;;;24.80;62.60;;;;;;6160594;22;89281;-70
2023/07/05 05:11:53;;;;;;;3.65;0.40;;;24.50;63.70;;;;;;6184918;22;88246;-70
2023/07/05 05:14:18;;;;;;;2.95;0.60;;;24.10;66.30;;;;;;6185507;22;87433;-70
2023/07/05 05:16:44;;;;;;;5.70;0.60;;;24.00;65.00;;;;;;6184595;22;87692;-70
2023/07/05 05:19:10;;;;;;;1.25;0.40;;;24.40;65.40;;;;;;6185932;22;87778;-70
2023/07/05 05:21:35;;;;;;;2.58;0.93;;;24.60;63.40;;;;;;6184636;22;87232;-70
2023/07/05 05:24:01;;;;;;;1.52;0.68;;;25.80;62.60;;;;;;6186788;22;87771;-70
2023/07/05 05:26:26;;;;;;;2.58;0.70;;;26.10;60.10;;;;;;6179338;22;88569;-71
2023/07/05 05:28:52;;;;;;;1.77;0.70;;;26.40;59.20;;;;;;6179594;22;87712;-70
2023/07/05 05:31:18;;;;;;;5.07;0.50;;;26.70;60.90;;;;;;6172946;22;87869;-71
2023/07/05 05:33:43;;;;;;;1.10;0.43;;;26.00;59.70;;;;;;6176584;22;87593;-70
2023/07/05 05:36:09;;;;;;;3.30;0.35;;;25.10;61.50;;;;;;6177803;22;88970;-74
2023/07/05 05:38:35;;;;;;;1.80;0.55;;;24.60;62.60;;;;;;6180582;22;88816;-76
2023/07/05 05:41:10;;;;;;;1.25;0.50;;;24.20;63.50;;;;;;6181436;22;87346;-77
2023/07/05 05:43:39;;;;;;;4.00;0.60;;;23.90;63.80;;;;;;6181975;22;87304;-74
2023/07/05 05:46:05;;;;;;;2.25;0.50;;;23.70;64.90;;;;;;6182824;22;87153;-76
2023/07/05 05:48:31;;;;;;;4.43;0.50;;;23.80;65.90;;;;;;6184818;22;87392;-71
2023/07/05 05:50:56;;;;;;;3.80;0.52;;;23.70;65.50;;;;;;6181547;22;87306;-72
2023/07/05 05:53:22;;;;;;;5.57;0.60;;;23.60;66.00;;;;;;6179795;22;86606;-72
2023/07/05 05:55:48;;;;;;;2.25;0.52;;;23.30;66.40;;;;;;6184909;22;88121;-71
2023/07/05 05:58:13;;;;;;;1.73;0.47;;;23.30;67.30;;;;;;6186266;22;87438;-71
2023/07/05 06:00:39;;;;;;;4.05;0.52;;;23.30;66.90;;;;;;6184095;22;88384;-73
2023/07/05 06:03:05;;;;;;;2.53;0.50;;;23.00;67.00;;;;;;6186469;22;87308;-72
2023/07/05 06:05:33;;;;;;;4.70;0.50;;;22.90;67.50;;;;;;6187327;22;88176;-72
2023/07/05 06:07:58;;;;;;;3.00;0.35;;;22.80;67.70;;;;;;6184925;22;87920;-75
2023/07/05 06:10:24;;;;;;;1.73;0.60;;;22.80;68.60;;;;;;6184401;22;87537;-71
2023/07/05 06:12:50;;;;;;;1.90;0.63;;;22.80;69.50;;;;;;6187572;22;87403;-71
2023/07/05 06:15:16;;;;;;;1.60;0.45;;;22.80;69.50;;;;;;6185861;22;88198;-72
2023/07/05 06:17:41;;;;;;;5.60;0.60;;;22.80;70.00;;;;;;6187042;22;87481;-71
2023/07/05 06:20:10;;;;;;;4.80;0.40;;;22.80;70.60;;;;;;6187903;22;87286;-75
2023/07/05 06:22:36;;;;;;;5.40;0.63;;;22.70;71.40;;;;;;6188750;22;87402;-72
2023/07/05 06:25:03;;;;;;;4.47;0.60;;;22.60;71.90;;;;;;6189085;22;89686;-71
2023/07/05 06:27:29;;;;;;;4.65;0.63;;;22.60;70.90;;;;;;6188421;22;89179;-72
2023/07/05 06:29:54;;;;;;;4.30;0.30;;;22.70;71.80;;;;;;6189531;22;87282;-70
2023/07/05 06:32:20;;;;;;;2.15;0.55;;;22.90;70.60;;;;;;6191139;22;87247;-71
2023/07/05 06:34:46;;;;;;;2.75;0.35;;;22.90;71.10;;;;;;6190889;22;87654;-71
2023/07/05 06:37:12;;;;;;;5.30;0.88;;;23.00;70.00;;;;;;6190716;22;88357;-75
2023/07/05 06:39:37;;;;;;;6.68;0.65;;;23.00;69.50;;;;;;6190484;22;86909;-72
2023/07/05 06:42:04;;;;;;;5.03;0.60;;;23.00;69.50;;;;;;6192319;22;86315;-74
2023/07/05 06:44:29;;;;;;;7.85;0.60;;;23.60;70.80;;;;;;6190743;22;87430;-72
2023/07/05 06:46:55;;;;;;;3.40;0.73;;;24.40;65.20;;;;;;6191383;22;87443;-72
2023/07/05 06:49:21;;;;;;;7.63;0.68;;;24.70;65.20;;;;;;6190018;22;88328;-73
2023/07/05 06:51:46;;;;;;;5.82;0.80;;;26.10;64.60;;;;;;6191700;22;87498;-71
2023/07/05 06:54:12;;;;;;;3.55;0.88;;;28.20;59.80;;;;;;6190575;22;87566;-72
2023/07/05 06:56:38;;;;;;;5.28;0.60;;;28.50;57.20;;;;;;6190506;22;88090;-73
2023/07/05 06:59:04;;;;;;;3.08;0.73;;;28.20;56.20;;;;;;6191149;22;87298;-74
2023/07/05 07:01:29;;;;;;;5.03;0.80;;;27.50;57.30;;;;;;6190859;22;86994;-71
2023/07/05 07:03:55;;;;;;;6.65;0.98;;;26.90;60.30;;;;;;6191017;22;87677;-71
2023/07/05 07:06:21;;;;;;;2.53;0.68;;;26.40;61.30;;;;;;6191116;22;87184;-71
2023/07/05 07:08:48;;;;;;;2.13;0.52;;;26.00;62.20;;;;;;6190431;22;87238;-70
2023/07/05 07:11:14;;;;;;;3.63;0.68;;;25.80;64.70;;;;;;6190676;22;87536;-72
2023/07/05 07:13:39;;;;;;;3.75;0.65;;;25.80;63.10;;;;;;6188015;22;89454;-71
2023/07/05 07:16:11;;;;;;;2.03;0.50;;;25.90;64.10;;;;;;6189293;22;89172;-72
2023/07/05 07:18:37;;;;;;;3.50;0.55;;;25.90;63.50;;;;;;6159890;22;87290;-72
2023/07/05 07:21:09;;;;;;;2.35;0.73;;;26.20;63.30;;;;;;6160700;22;87330;-73
2023/07/05 07:23:35;;;;;;;2.83;0.73;;;26.70;61.00;;;;;;6160192;22;88017;-70
2023/07/05 07:26:05;;;;;;;3.65;0.73;;;26.90;59.10;;;;;;6160406;22;87365;-70
2023/07/05 07:28:31;;;;;;;2.40;0.90;;;27.20;60.70;;;;;;6160141;22;87239;-71
2023/07/05 07:30:57;;;;;;;4.40;0.95;;;27.30;58.70;;;;;;6160974;22;86517;-73
2023/07/05 07:33:24;;;;;;;2.58;0.60;;;27.10;59.10;;;;;;6160370;22;88548;-72
2023/07/05 07:35:50;;;;;;;2.67;0.75;;;26.80;60.30;;;;;;6157424;22;87751;-71
2023/07/05 07:38:16;;;;;;;2.00;0.85;;;26.60;60.60;;;;;;6158029;22;87970;-71
2023/07/05 07:40:42;;;;;;;2.83;0.60;;;26.30;60.60;;;;;;6158919;22;87321;-71
2023/07/05 07:43:08;;;;;;;4.90;0.57;;;26.00;61.90;;;;;;6158563;22;87928;-72
2023/07/05 07:45:35;;;;;;;3.47;0.63;;;25.70;63.10;;;;;;6157811;22;87746;-74
2023/07/05 07:48:00;;;;;;;2.97;0.63;;;25.50;63.40;;;;;;6157259;22;87404;-71
2023/07/05 07:50:26;;;;;;;5.45;0.70;;;25.30;63.20;;;;;;6159073;22;87326;-73
2023/07/05 07:52:53;;;;;;;4.65;0.82;;;25.20;64.10;;;;;;6157992;22;88618;-72
2023/07/05 07:55:19;;;;;;;3.28;1.50;;;25.20;63.80;;;;;;6158267;22;87455;-70
2023/07/05 07:57:45;;;;;;;2.95;0.73;;;25.50;64.20;;;;;;6158722;22;87314;-72
2023/07/05 08:00:11;;;;;;;8.02;0.93;;;26.00;62.70;;;;;;6158362;22;87335;-71
2023/07/05 08:02:37;;;;;;;2.70;0.80;;;26.30;62.10;;;;;;6158112;22;88562;-71
2023/07/05 08:05:11;;;;;;;3.45;0.52;;;26.80;61.70;;;;;;6157652;22;88736;-72
2023/07/05 08:07:37;;;;;;;2.75;0.95;;;28.50;59.40;;;;;;6158585;22;87317;-71
2023/07/05 08:10:03;;;;;;;3.08;0.93;;;29.10;54.90;;;;;;6158624;22;87425;-71
2023/07/05 08:12:29;;;;;;;3.10;0.88;;;29.20;54.40;;;;;;6157631;22;88096;-71
2023/07/05 08:14:54;;;;;;;5.97;0.80;;;29.30;54.40;;;;;;6158011;22;88141;-72
2023/07/05 08:17:21;;;;;;;11.40;1.00;;;28.80;55.20;;;;;;6173380;22;87195;-70
2023/07/05 08:19:47;;;;;;;6.15;1.13;;;28.50;55.90;;;;;;6189800;22;86483;-73
2023/07/05 08:22:13;;;;;;;5.15;0.90;;;28.40;56.80;;;;;;6188468;22;88471;-72
2023/07/05 08:24:38;;;;;;;3.38;1.05;;;28.00;56.50;;;;;;6187814;22;87799;-71
2023/07/05 08:27:05;;;;;;;4.43;1.40;;;27.70;57.10;;;;;;6187626;22;88324;-69
2023/07/05 08:29:31;;;;;;;3.58;0.85;;;27.20;57.80;;;;;;6188800;22;87154;-70
2023/07/05 08:31:57;;;;;;;3.10;1.00;;;26.90;58.80;;;;;;6188430;22;88080;-71
2023/07/05 08:34:22;;;;;;;7.25;1.52;;;26.70;58.50;;;;;;6188463;22;87944;-71
2023/07/05 08:36:48;;;;;;;2.67;0.73;;;26.70;58.90;;;;;;6187713;22;87382;-72
2023/07/05 08:39:14;;;;;;;1.95;0.80;;;26.60;58.70;;;;;;6188278;22;87286;-70
2023/07/05 08:41:43;;;;;;;4.60;0.80;;;26.60;58.20;;;;;;6186695;22;87825;-70
2023/07/05 08:44:20;;;;;;;13.50;0.80;;;26.80;60.10;;;;;;6187692;22;87775;-73
2023/07/05 08:46:55;;;;;;;3.67;0.68;;;27.10;57.60;;;;;;6187631;22;87333;-73
2023/07/05 08:49:26;;;;;;;3.95;0.82;;;26.90;57.10;;;;;;6188766;22;87197;-70
2023/07/05 08:51:53;;;;;;;2.40;0.90;;;26.80;57.90;;;;;;6187666;22;88605;-70
2023/07/05 08:54:20;;;;;;;5.65;0.77;;;26.50;58.20;;;;;;6188266;22;88070;-69
2023/07/05 08:56:57;;;;;;;4.20;0.90;;;26.20;59.50;;;;;;6188677;22;87055;-72
2023/07/05 08:59:29;;;;;;;5.63;0.82;;;26.00;59.10;;;;;;6188883;22;87443;-73
2023/07/05 09:01:56;;;;;;;3.67;0.73;;;25.70;59.50;;;;;;6187238;22;87465;-70
2023/07/05 09:04:28;;;;;;;2.65;0.98;;;25.30;60.70;;;;;;6188746;22;88113;-71
2023/07/05 09:07:03;;;;;;;2.75;0.82;;;25.10;62.30;;;;;;6188236;22;87238;-72
2023/07/05 09:09:47;;;;;;;7.93;0.65;;;24.90;62.80;;;;;;6189382;22;86582;-69
2023/07/05 09:12:37;;;;;;;4.28;1.20;;;24.70;63.30;;;;;;6187792;22;87978;-70
2023/07/05 09:15:23;;;;;;;6.18;0.90;;;24.30;65.30;;;;;;6185750;22;87759;-73
2023/07/05 09:17:52;;;;;;;2.60;0.70;;;24.00;66.90;;;;;;6184568;22;88373;-70
2023/07/05 09:20:38;;;;;;;3.17;0.93;;;23.70;67.60;;;;;;6160991;22;87381;-70
2023/07/05 09:23:09;;;;;;;8.00;0.93;;;23.20;68.30;;;;;;6187834;22;87774;-72
2023/07/05 09:25:37;;;;;;;7.18;0.90;;;22.60;73.20;;;;;;6160781;22;90427;-72
2023/07/05 09:28:19;;;;;;;6.38;0.40;;;21.90;78.60;;;;;;6188142;22;87310;-72
2023/07/05 09:30:46;;;;;;;1.98;0.30;;;20.90;79.10;;;;;;6187565;22;87535;-72
2023/07/05 09:33:19;;;;;;;0.70;0.10;;;20.30;81.70;;;;;;6186889;22;87826;-71
2023/07/05 09:35:47;;;;;;;3.65;0.20;;;20.00;83.30;;;;;;6187059;22;87940;-76
2023/07/05 09:38:17;;;;;;;2.75;0.30;;;20.00;84.40;;;;;;6187724;22;87746;-70
2023/07/05 09:40:50;;;;;;;1.50;0.20;;;20.20;85.10;;;;;;6187080;22;87307;-71
2023/07/05 09:43:31;;;;;;;1.17;0.22;;;20.30;86.10;;;;;;6186293;22;88165;-71
2023/07/05 09:46:01;;;;;;;4.30;0.30;;;20.60;85.80;;;;;;6187972;22;87778;-68
2023/07/05 09:48:30;;;;;;;1.25;0.20;;;20.90;84.50;;;;;;6187499;22;87351;-71
2023/07/05 09:50:57;;;;;;;2.92;0.28;;;21.00;84.60;;;;;;6188241;22;87396;-71
2023/07/05 09:53:47;;;;;;;1.70;0.30;;;21.40;84.50;;;;;;6187173;22;88220;-71
2023/07/05 09:56:16;;;;;;;1.02;0.40;;;22.00;83.00;;;;;;6187244;22;88255;-71
2023/07/05 09:58:48;;;;;;;2.10;0.20;;;22.40;79.80;;;;;;6187866;22;87270;-71
2023/07/05 10:01:23;;;;;;;2.38;0.43;;;22.40;79.40;;;;;;6159311;22;86836;-73
2023/07/05 10:03:53;;;;;;;1.65;0.40;;;22.40;80.00;;;;;;6187844;22;88554;-71
2023/07/05 10:06:22;;;;;;;2.00;0.35;;;22.30;79.40;;;;;;6185572;22;87999;-71
2023/07/05 10:08:51;;;;;;;6.25;0.30;;;22.30;79.10;;;;;;6184868;22;88226;-74
2023/07/05 10:11:28;;;;;;;3.80;0.30;;;22.50;80.90;;;;;;6179940;22;87486;-71
2023/07/05 10:14:12;;;;;;;1.90;0.20;;;22.70;80.00;;;;;;6185581;22;87721;-72
2023/07/05 10:16:48;;;;;;;0.98;0.20;;;22.40;79.20;;;;;;6183592;22;88216;-71
2023/07/05 10:19:24;;;;;;;1.23;0.30;;;21.80;80.80;;;;;;6180972;22;87397;-77
2023/07/05 10:22:14;;;;;;;0.98;0.35;;;21.40;82.50;;;;;;6174669;22;87824;-70
2023/07/05 10:24:47;;;;;;;3.65;0.30;;;21.00;84.40;;;;;;6161727;22;88202;-75
2023/07/05 10:27:22;;;;;;;1.60;0.30;;;20.70;86.60;;;;;;6181460;22;87448;-71
2023/07/05 10:30:00;;;;;;;1.02;0.35;;;20.50;86.70;;;;;;6186271;22;87290;-71
2023/07/05 10:32:26;;;;;;;1.85;0.40;;;20.50;86.60;;;;;;6179672;22;87405;-77
2023/07/05 10:34:55;;;;;;;2.05;0.40;;;20.50;86.20;;;;;;6172480;22;89152;-72
2023/07/05 10:37:37;;;;;;;1.55;0.40;;;20.60;83.30;;;;;;6173416;22;87338;-75
2023/07/05 10:40:08;;;;;;;3.53;0.63;;;21.00;87.20;;;;;;6184831;22;87324;-72
2023/07/05 10:42:35;;;;;;;1.23;0.30;;;21.40;85.80;;;;;;6179752;22;87104;-73
2023/07/05 10:45:03;;;;;;;2.30;0.50;;;21.70;85.60;;;;;;6181642;22;88321;-70
2023/07/05 10:47:31;;;;;;;2.83;0.60;;;21.80;85.60;;;;;;6182208;22;87918;-73
2023/07/05 10:50:05;;;;;;;3.85;0.50;;;22.00;84.40;;;;;;6182271;22;87153;-71
2023/07/05 10:52:36;;;;;;;1.85;0.30;;;21.90;82.90;;;;;;6183674;22;86682;-70
2023/07/05 10:55:05;;;;;;;3.13;0.38;;;21.90;83.00;;;;;;6178486;22;87623;-72
2023/07/05 10:57:49;;;;;;;3.10;0.43;;;21.80;85.00;;;;;;6178712;22;88368;-71
2023/07/05 11:00:28;;;;;;;2.35;0.32;;;21.90;86.60;;;;;;6182705;22;88343;-71
2023/07/05 11:03:11;;;;;;;5.13;0.40;;;22.10;86.50;;;;;;6184158;22;87691;-73
2023/07/05 11:05:48;;;;;;;4.93;0.43;;;22.20;85.00;;;;;;6180613;22;88117;-70
2023/07/05 11:08:19;;;;;;;2.63;0.40;;;22.20;85.80;;;;;;6181707;22;88134;-70
2023/07/05 11:10:46;;;;;;;2.28;0.20;;;22.30;83.20;;;;;;6184541;22;87604;-73
2023/07/05 11:13:17;;;;;;;1.88;0.40;;;22.30;83.80;;;;;;6186848;22;87283;-71
2023/07/05 11:15:44;;;;;;;2.72;0.85;;;22.50;86.10;;;;;;6184526;22;88542;-72
2023/07/05 11:18:18;;;;;;;2.15;0.55;;;22.90;85.40;;;;;;6183049;22;87863;-72
2023/07/05 11:21:02;;;;;;;1.77;0.40;;;23.30;81.10;;;;;;6185919;22;87336;-72
2023/07/05 11:23:43;;;;;;;3.13;0.73;;;23.40;79.00;;;;;;6185303;22;87348;-72
2023/07/05 11:26:29;;;;;;;3.80;0.30;;;23.40;78.30;;;;;;6184703;22;89462;-71
2023/07/05 11:28:55;;;;;;;2.33;0.30;;;23.10;80.60;;;;;;6184930;22;87672;-73
2023/07/05 11:31:29;;;;;;;10.43;0.63;;;22.90;81.70;;;;;;6185714;22;87460;-71
2023/07/05 11:34:20;;;;;;;4.30;0.57;;;22.70;81.00;;;;;;6186183;22;87409;-70
2023/07/05 11:37:06;;;;;;;2.10;0.32;;;22.50;80.50;;;;;;6185172;22;88033;-72
2023/07/05 11:39:42;;;;;;;4.05;0.47;;;22.60;83.50;;;;;;6159434;22;87433;-69
2023/07/05 11:42:16;;;;;;;;;;;22.80;81.50;;;;;;6185740;22;87215;-70
2023/07/05 11:45:05;;;;;;;4.40;0.50;;;22.90;82.20;;;;;;6188123;22;86688;-69
2023/07/05 11:47:33;;;;;;;1.50;0.40;;;23.10;79.50;;;;;;6165413;22;88403;-70
2023/07/05 11:50:06;;;;;;;4.28;0.30;;;23.20;80.90;;;;;;6185449;22;87606;-70
2023/07/05 11:52:37;;;;;;;2.92;0.43;;;23.30;80.00;;;;;;6185635;22;88576;-71
2023/07/05 11:55:10;;;;;;;1.80;0.40;;;23.40;79.20;;;;;;6186363;22;87293;-71
2023/07/05 11:57:43;;;;;;;3.15;0.47;;;23.60;79.70;;;;;;6184374;22;87621;-70
2023/07/05 12:00:27;;;;;;;1.50;0.52;;;23.60;79.70;;;;;;6185989;22;87354;-72
2023/07/05 12:03:18;;;;;;;2.05;0.52;;;23.80;77.30;;;;;;6186279;22;87326;-71
2023/07/05 12:05:45;;;;;;;2.47;0.70;;;24.20;75.50;;;;;;6183403;22;87620;-73
2023/07/05 12:08:24;;;;;;;2.38;0.55;;;24.40;74.90;;;;;;6185248;22;87531;-73
2023/07/05 12:10:59;;;;;;;1.60;0.43;;;24.60;74.20;;;;;;6186313;22;87239;-74
2023/07/05 12:13:27;;;;;;;2.90;0.30;;;25.00;72.10;;;;;;6186358;22;87338;-71
2023/07/05 12:15:53;;;;;;;2.03;0.40;;;25.40;71.00;;;;;;6184404;22;87805;-71
2023/07/05 12:18:20;;;;;;;0.98;0.30;;;25.40;70.40;;;;;;6183998;22;89117;-71
2023/07/05 12:20:53;;;;;;;3.40;0.45;;;25.50;70.60;;;;;;6184166;22;89344;-73
2023/07/05 12:23:21;;;;;;;1.40;0.38;;;25.60;67.40;;;;;;6187492;22;87179;-70
2023/07/05 12:25:50;;;;;;;1.55;0.25;;;25.50;68.00;;;;;;6187213;22;87104;-71
2023/07/05 12:28:19;;;;;;;2.03;0.50;;;25.70;67.30;;;;;;6184770;22;88526;-73
2023/07/05 12:30:45;;;;;;;1.70;0.60;;;25.50;68.80;;;;;;6187159;22;87332;-75
2023/07/05 12:33:22;;;;;;;4.07;0.38;;;25.30;68.50;;;;;;6186550;22;87429;-73
2023/07/05 12:36:06;;;;;;;3.95;0.63;;;25.30;67.10;;;;;;6185292;22;86806;-72
2023/07/05 12:38:32;;;;;;;2.15;0.73;;;25.00;68.60;;;;;;6187139;22;88301;-70
2023/07/05 12:40:58;;;;;;;2.17;0.45;;;24.70;71.30;;;;;;6185160;22;87305;-72
2023/07/05 12:43:29;;;;;;;1.52;0.38;;;24.50;71.70;;;;;;6186097;22;88253;-72
2023/07/05 12:46:06;;;;;;;4.40;0.50;;;24.30;71.90;;;;;;6186415;22;87993;-72
2023/07/05 12:48:32;;;;;;;1.92;0.95;;;24.10;70.90;;;;;;6185658;22;88060;-70
2023/07/05 12:51:21;;;;;;;2.63;0.80;;;23.90;71.20;;;;;;6186546;22;87945;-70
2023/07/05 12:53:48;;;;;;;4.63;0.50;;;23.70;75.20;;;;;;6188019;22;87052;-71
2023/07/05 12:56:17;;;;;;;1.52;0.55;;;23.60;74.60;;;;;;6188408;22;87227;-72
2023/07/05 12:59:03;;;;;;;1.25;0.30;;;23.60;75.20;;;;;;6188655;22;87730;-71
2023/07/05 13:01:32;;;;;;;1.92;0.40;;;23.60;75.10;;;;;;6189341;22;87457;-74
2023/07/05 13:03:59;;;;;;;1.33;0.50;;;23.60;75.20;;;;;;6188065;22;87292;-70
2023/07/05 13:06:25;;;;;;;1.75;0.50;;;23.60;76.50;;;;;;6188695;22;87363;-71
2023/07/05 13:08:55;;;;;;;3.00;0.38;;;23.70;79.20;;;;;;6188480;22;88679;-70
2023/07/05 13:11:30;;;;;;;2.10;0.55;;;23.60;78.40;;;;;;6188116;22;89255;-72
2023/07/05 13:14:01;;;;;;;5.03;0.65;;;23.70;75.60;;;;;;6188753;22;87362;-70
2023/07/05 13:16:56;;;;;;;1.17;0.45;;;23.80;76.10;;;;;;6188729;22;87373;-71
2023/07/05 13:19:43;;;;;;;19.73;1.00;;;24.00;75.50;;;;;;6158277;22;89447;-72
2023/07/05 13:22:27;;;;;;;5.32;0.60;;;24.30;75.50;;;;;;6187895;22;86964;-72
2023/07/05 13:24:54;;;;;;;8.60;0.80;;;24.80;73.90;;;;;;6187784;22;87697;-70
2023/07/05 13:27:20;;;;;;;11.27;0.52;;;25.30;72.30;;;;;;6188912;22;87133;-70
2023/07/05 13:29:47;;;;;;;5.32;0.57;;;25.70;69.70;;;;;;6187954;22;87192;-72
2023/07/05 13:32:48;;;;;;;1.42;0.60;;;26.00;66.80;;;;;;6186989;22;87750;-71
2023/07/05 13:35:14;;;;;;;2.63;0.50;;;25.90;66.60;;;;;;6106477;22;88263;-72
2023/07/05 13:37:40;;;;;;;1.30;0.47;;;25.90;65.30;;;;;;6187995;22;87926;-71
2023/07/05 13:40:10;;;;;;;1.48;0.50;;;25.80;67.30;;;;;;6187877;22;88840;-72
2023/07/05 13:42:38;;;;;;;1.95;0.50;;;25.70;65.30;;;;;;6187269;22;87825;-73
2023/07/05 13:45:15;;;;;;;2.22;1.10;;;25.50;66.60;;;;;;6187246;22;87483;-72
2023/07/05 13:47:42;;;;;;;1.42;0.43;;;25.30;67.00;;;;;;6188424;22;87367;-69
2023/07/05 13:50:08;;;;;;;1.30;0.57;;;25.00;67.60;;;;;;6187908;22;87477;-71
2023/07/05 13:52:34;;;;;;;1.83;0.35;;;24.80;68.90;;;;;;6187365;22;89208;-71
2023/07/05 13:55:00;;;;;;;1.45;0.52;;;24.60;71.70;;;;;;6187405;22;87578;-71
2023/07/05 13:57:26;;;;;;;1.92;0.47;;;24.60;71.30;;;;;;6187217;22;87385;-72
2023/07/05 13:59:52;;;;;;;2.33;0.40;;;24.60;72.00;;;;;;6186794;22;88536;-71
2023/07/05 14:02:36;;;;;;;1.70;0.47;;;24.80;69.60;;;;;;6185967;22;87443;-74
2023/07/05 14:05:05;;;;;;;1.33;0.30;;;25.10;68.50;;;;;;6178390;22;87628;-74
2023/07/05 14:07:31;;;;;;;1.15;0.50;;;25.30;69.50;;;;;;6178925;22;87446;-73
2023/07/05 14:09:57;;;;;;;2.88;0.80;;;25.30;69.30;;;;;;6180713;22;88649;-70
2023/07/05 14:12:24;;;;;;;1.35;0.45;;;25.40;69.80;;;;;;6182471;22;87329;-73
2023/07/05 14:14:50;;;;;;;2.58;0.40;;;25.30;67.30;;;;;;6185735;22;87419;-72
2023/07/05 14:17:18;;;;;;;1.90;0.47;;;25.20;64.70;;;;;;6186912;22;86509;-74
2023/07/05 14:19:45;;;;;;;2.05;0.50;;;25.10;65.70;;;;;;6187226;22;88052;-71
2023/07/05 14:22:21;;;;;;;1.40;0.32;;;24.80;65.60;;;;;;6187537;22;88221;-70
2023/07/05 14:24:51;;;;;;;1.65;0.40;;;24.90;66.90;;;;;;6187542;22;88108;-70
2023/07/05 14:27:22;;;;;;;1.50;0.40;;;25.00;68.30;;;;;;6187703;22;87093;-72
2023/07/05 14:29:49;;;;;;;3.15;0.63;;;25.10;67.40;;;;;;6186622;22;87762;-73
2023/07/05 14:32:15;;;;;;;2.33;1.00;;;25.10;67.60;;;;;;6187951;22;87837;-72
2023/07/05 14:34:42;;;;;;;3.65;0.50;;;25.10;69.70;;;;;;6186770;22;86945;-70
2023/07/05 14:37:08;;;;;;;1.85;0.30;;;25.20;66.70;;;;;;6159270;22;87453;-70
2023/07/05 14:39:34;;;;;;;2.40;0.40;;;25.20;66.90;;;;;;6182110;22;87578;-71
2023/07/05 14:42:01;;;;;;;3.28;0.32;;;25.40;66.50;;;;;;6188348;22;87750;-71
2023/07/05 14:44:26;;;;;;;1.65;0.40;;;25.50;67.10;;;;;;6183819;22;87265;-71
2023/07/05 14:46:52;;;;;;;5.80;0.40;;;25.80;66.90;;;;;;6181159;22;87322;-72
2023/07/05 14:49:18;;;;;;;2.28;0.60;;;25.80;65.30;;;;;;6179528;22;88785;-74
2023/07/05 14:51:44;;;;;;;2.13;0.47;;;25.70;66.80;;;;;;6180433;22;88927;-74
2023/07/05 14:54:10;;;;;;;3.47;0.55;;;25.60;65.30;;;;;;6176165;22;87638;-74
2023/07/05 14:56:40;;;;;;;4.18;1.38;;;25.60;65.70;;;;;;6178560;22;88186;-75
2023/07/05 14:59:06;;;;;;;4.20;1.55;;;25.80;66.10;;;;;;6177335;22;88061;-74
2023/07/05 15:01:32;;;;;;;1.80;0.50;;;25.90;64.70;;;;;;6176144;22;87844;-73
2023/07/05 15:03:59;;;;;;;2.90;0.75;;;26.00;65.40;;;;;;6180566;22;87486;-72
2023/07/05 15:06:25;;;;;;;4.53;0.60;;;26.00;66.20;;;;;;6189689;22;86663;-70
2023/07/05 15:08:51;;;;;;;1.65;0.50;;;26.00;66.90;;;;;;6189530;22;87745;-72
2023/07/05 15:11:17;;;;;;;3.90;0.77;;;25.70;65.40;;;;;;6188449;22;87856;-71
2023/07/05 15:13:45;;;;;;;1.58;0.50;;;25.50;67.40;;;;;;6186990;22;87901;-71
2023/07/05 15:16:16;;;;;;;2.15;0.60;;;25.40;67.30;;;;;;6187004;22;87326;-70
2023/07/05 15:18:42;;;;;;;2.00;0.95;;;25.50;67.80;;;;;;6188706;22;88215;-70
2023/07/05 15:21:16;;;;;;;2.00;1.00;;;25.50;66.50;;;;;;6187698;22;88093;-70
2023/07/05 15:23:42;;;;;;;2.33;0.57;;;25.60;66.60;;;;;;6188249;22;87442;-70
2023/07/05 15:26:10;;;;;;;2.67;1.15;;;25.70;67.10;;;;;;6181600;22;87842;-72
2023/07/05 15:28:36;;;;;;;2.50;0.80;;;25.50;67.10;;;;;;6187125;22;88953;-71
2023/07/05 15:31:02;;;;;;;2.67;0.70;;;25.20;68.50;;;;;;6188274;22;87723;-71
2023/07/05 15:33:28;;;;;;;1.38;0.57;;;25.00;69.30;;;;;;6185872;22;87241;-71
2023/07/05 15:35:54;;;;;;;2.45;0.52;;;24.80;70.10;;;;;;6186789;22;87250;-71
2023/07/05 15:38:19;;;;;;;2.42;0.60;;;24.90;70.30;;;;;;6186960;22;89608;-70
2023/07/05 15:40:45;;;;;;;1.70;0.57;;;25.00;71.90;;;;;;6185735;22;88818;-71
2023/07/05 15:43:11;;;;;;;3.17;0.50;;;24.60;70.60;;;;;;6188743;22;87309;-71
2023/07/05 15:45:37;;;;;;;2.45;0.73;;;24.40;71.70;;;;;;6188051;22;87389;-74
2023/07/05 15:48:04;;;;;;;3.42;0.60;;;24.10;72.40;;;;;;6187612;22;87641;-69
2023/07/05 15:50:29;;;;;;;1.95;0.60;;;24.00;73.00;;;;;;6184004;22;87430;-71
2023/07/05 15:52:56;;;;;;;1.70;0.50;;;23.90;72.10;;;;;;6186870;22;87034;-73
2023/07/05 15:55:23;;;;;;;3.85;1.00;;;23.70;71.80;;;;;;6187706;22;86218;-70
2023/07/05 15:57:51;;;;;;;4.93;0.57;;;23.50;72.20;;;;;;6188195;22;87740;-72
2023/07/05 16:00:27;;;;;;;2.40;0.50;;;23.30;73.10;;;;;;6187233;22;87485;-70
2023/07/05 16:02:59;;;;;;;1.70;0.35;;;23.20;72.80;;;;;;6185365;22;88363;-72
2023/07/05 16:05:32;;;;;;;2.17;1.02;;;23.40;74.60;;;;;;6186616;22;87336;-70
2023/07/05 16:07:58;;;;;;;4.70;0.73;;;23.50;73.60;;;;;;6160390;22;90875;-71
2023/07/05 16:10:23;;;;;;;1.70;0.40;;;23.60;73.40;;;;;;6187770;22;88234;-72
2023/07/05 16:12:52;;;;;;;2.67;0.50;;;23.70;72.70;;;;;;6186572;22;87680;-71
2023/07/05 16:15:17;;;;;;;1.92;0.40;;;23.60;73.00;;;;;;6182460;22;87320;-74